Time;durP1;ratioP1;P1;durP2;ratioP2;P2;SDS_P1;SDS_P2;PMS_P1;PMS_P2;Temp;Humidity;BMP_temperature;BMP_pressure;BME280_temperature;BME280_humidity;BME280_pressure;Samples;Min_cycle;Max_cycle;Signal;HPM_P1;HPM_P2
2022/09/18 00:01:23;;;;;;;3.80;1.30;;;;;;;;;;4977858;28;20231;-82
2022/09/18 00:03:51;;;;;;;2.35;1.63;;;;;;;;;;4978022;28;20185;-82
2022/09/18 00:06:22;;;;;;;3.35;1.23;;;;;;;;;;4977256;28;20204;-80
2022/09/18 00:08:52;;;;;;;1.67;0.93;;;;;;;;;;4977224;28;20622;-81
2022/09/18 00:11:22;;;;;;;1.80;1.02;;;;;;;;;;4977154;28;20236;-81
2022/09/18 00:13:50;;;;;;;2.08;1.20;;;;;;;;;;4977787;28;20327;-82
2022/09/18 00:16:21;;;;;;;3.92;2.13;;;;;;;;;;4980276;28;20208;-82
2022/09/18 00:18:48;;;;;;;2.92;1.10;;;;;;;;;;4981481;28;20291;-81
2022/09/18 00:21:19;;;;;;;1.63;0.90;;;;;;;;;;4982261;28;20412;-82
2022/09/18 00:23:47;;;;;;;2.72;1.20;;;;;;;;;;4981355;28;20211;-80
2022/09/18 00:26:17;;;;;;;3.17;1.08;;;;;;;;;;4981848;28;20203;-81
2022/09/18 00:28:46;;;;;;;3.33;1.17;;;;;;;;;;4981454;28;20200;-81
2022/09/18 00:31:17;;;;;;;3.42;1.10;;;;;;;;;;4981512;28;20263;-81
2022/09/18 00:33:44;;;;;;;1.85;1.30;;;;;;;;;;4981147;28;20224;-82
2022/09/18 00:36:15;;;;;;;3.42;1.27;;;;;;;;;;4981270;28;20200;-82
2022/09/18 00:38:43;;;;;;;1.40;1.23;;;;;;;;;;4981641;28;20252;-80
2022/09/18 00:41:15;;;;;;;2.83;1.70;;;;;;;;;;4980951;28;20303;-81
2022/09/18 00:43:45;;;;;;;3.67;1.38;;;;;;;;;;4981205;28;20201;-82
2022/09/18 00:46:22;;;;;;;2.03;1.40;;;;;;;;;;4981521;28;20200;-81
2022/09/18 00:49:01;;;;;;;7.38;1.70;;;;;;;;;;4980761;28;20210;-80
2022/09/18 00:51:30;;;;;;;2.80;1.40;;;;;;;;;;4981255;28;20232;-81
2022/09/18 00:54:04;;;;;;;5.63;1.30;;;;;;;;;;4981369;28;20228;-81
2022/09/18 00:56:31;;;;;;;2.10;1.38;;;;;;;;;;4980806;28;20228;-80
2022/09/18 00:59:00;;;;;;;2.85;1.58;;;;;;;;;;4982106;28;20287;-82
2022/09/18 01:01:28;;;;;;;3.00;2.00;;;;;;;;;;4980872;28;20307;-81
2022/09/18 01:03:55;;;;;;;1.15;1.05;;;;;;;;;;4980724;28;20203;-81
2022/09/18 01:06:30;;;;;;;4.32;1.80;;;;;;;;;;4980632;28;20235;-82
2022/09/18 01:09:07;;;;;;;4.45;1.40;;;;;;;;;;4981452;28;20711;-81
2022/09/18 01:11:41;;;;;;;2.75;1.23;;;;;;;;;;4980380;28;20298;-81
2022/09/18 01:14:27;;;;;;;1.75;1.48;;;;;;;;;;4981121;28;20216;-81
2022/09/18 01:17:02;;;;;;;3.47;2.22;;;;;;;;;;4981014;28;20208;-80
2022/09/18 01:19:54;;;;;;;2.80;1.35;;;;;;;;;;4980699;28;20662;-81
2022/09/18 01:22:31;;;;;;;2.00;1.30;;;;;;;;;;4980127;28;20566;-80
2022/09/18 01:25:13;;;;;;;1.92;1.30;;;;;;;;;;4980247;28;20267;-81
2022/09/18 01:27:56;;;;;;;2.03;1.10;;;;;;;;;;4979553;28;20866;-81
2022/09/18 01:30:24;;;;;;;3.95;1.50;;;;;;;;;;4979771;28;20224;-80
2022/09/18 01:32:58;;;;;;;1.50;1.30;;;;;;;;;;4979543;28;20230;-80
2022/09/18 01:35:31;;;;;;;1.80;1.23;;;;;;;;;;4980049;28;20271;-82
2022/09/18 01:38:06;;;;;;;3.03;1.30;;;;;;;;;;4979425;28;20565;-81
2022/09/18 01:40:37;;;;;;;2.92;1.23;;;;;;;;;;4979331;28;20220;-80
2022/09/18 01:43:09;;;;;;;4.03;1.92;;;;;;;;;;4979119;28;20209;-80
2022/09/18 01:45:40;;;;;;;2.13;1.70;;;;;;;;;;4979244;28;20195;-81
2022/09/18 01:48:09;;;;;;;2.72;1.33;;;;;;;;;;4979288;28;20275;-81
2022/09/18 01:50:40;;;;;;;2.53;1.48;;;;;;;;;;4978928;28;20238;-82
2022/09/18 01:53:13;;;;;;;3.47;1.42;;;;;;;;;;4977658;28;20601;-81
2022/09/18 01:55:42;;;;;;;2.42;1.17;;;;;;;;;;4977577;28;20567;-82
2022/09/18 01:58:16;;;;;;;2.13;1.50;;;;;;;;;;4978320;28;20722;-83
2022/09/18 02:00:48;;;;;;;2.30;1.55;;;;;;;;;;4978014;28;20220;-84
2022/09/18 02:03:20;;;;;;;2.22;1.63;;;;;;;;;;4978669;28;20195;-83
2022/09/18 02:05:51;;;;;;;2.03;1.52;;;;;;;;;;4977684;28;20195;-82
2022/09/18 02:08:23;;;;;;;2.85;1.98;;;;;;;;;;4977522;28;20210;-81
2022/09/18 02:10:54;;;;;;;3.08;2.15;;;;;;;;;;4976996;28;20216;-82
2022/09/18 02:13:26;;;;;;;1.75;1.23;;;;;;;;;;4976797;28;20222;-82
2022/09/18 02:16:01;;;;;;;2.33;1.20;;;;;;;;;;4984485;28;20558;-82
2022/09/18 02:18:31;;;;;;;3.13;1.45;;;;;;;;;;4996369;28;20274;-81
2022/09/18 02:20:59;;;;;;;2.65;1.33;;;;;;;;;;4996527;28;20215;-83
2022/09/18 02:23:28;;;;;;;2.00;1.30;;;;;;;;;;4996289;28;20203;-81
2022/09/18 02:25:59;;;;;;;2.95;1.50;;;;;;;;;;4996068;28;20215;-82
2022/09/18 02:28:29;;;;;;;2.60;1.30;;;;;;;;;;4995812;28;20214;-82
2022/09/18 02:30:58;;;;;;;1.60;1.15;;;;;;;;;;4996296;28;20227;-82
2022/09/18 02:33:31;;;;;;;2.60;1.38;;;;;;;;;;4995790;28;20200;-81
2022/09/18 02:36:23;;;;;;;2.92;1.25;;;;;;;;;;4996505;28;20188;-81
2022/09/18 02:39:01;;;;;;;1.95;1.20;;;;;;;;;;4995829;28;20215;-82
2022/09/18 02:41:38;;;;;;;3.10;1.20;;;;;;;;;;4996213;28;20696;-82
2022/09/18 02:44:12;;;;;;;2.22;1.38;;;;;;;;;;4982377;28;20215;-81
2022/09/18 02:46:46;;;;;;;2.00;1.30;;;;;;;;;;4976734;28;20550;-81
2022/09/18 02:49:19;;;;;;;1.25;1.15;;;;;;;;;;4976786;28;20201;-82
2022/09/18 02:51:52;;;;;;;3.45;1.40;;;;;;;;;;4976783;28;20373;-82
2022/09/18 02:54:25;;;;;;;1.65;1.40;;;;;;;;;;4976660;28;20215;-82
2022/09/18 02:56:55;;;;;;;2.33;1.50;;;;;;;;;;4976558;28;20219;-82
2022/09/18 02:59:29;;;;;;;0.82;0.80;;;;;;;;;;4976127;28;20191;-82
2022/09/18 03:01:57;;;;;;;4.07;1.60;;;;;;;;;;4976735;28;20551;-81
2022/09/18 03:04:27;;;;;;;4.22;1.88;;;;;;;;;;4976170;28;20295;-81
2022/09/18 03:06:55;;;;;;;1.67;1.45;;;;;;;;;;4976281;28;20291;-81
2022/09/18 03:09:22;;;;;;;2.55;1.70;;;;;;;;;;4976664;28;20204;-82
2022/09/18 03:11:50;;;;;;;2.30;1.35;;;;;;;;;;4975647;28;20240;-81
2022/09/18 03:14:17;;;;;;;3.03;1.20;;;;;;;;;;4975833;28;20315;-83
2022/09/18 03:16:46;;;;;;;1.20;1.10;;;;;;;;;;4976428;28;20665;-84
2022/09/18 03:19:14;;;;;;;3.22;1.10;;;;;;;;;;4976185;28;20666;-84
2022/09/18 03:21:42;;;;;;;2.47;1.42;;;;;;;;;;4975993;28;20200;-85
2022/09/18 03:24:09;;;;;;;2.40;1.10;;;;;;;;;;4975938;28;20219;-83
2022/09/18 03:26:36;;;;;;;1.95;1.17;;;;;;;;;;4975813;28;20239;-82
2022/09/18 03:29:08;;;;;;;3.72;1.45;;;;;;;;;;4975956;28;20573;-85
2022/09/18 03:31:36;;;;;;;1.42;1.30;;;;;;;;;;4975613;28;20190;-82
2022/09/18 03:34:05;;;;;;;2.20;1.23;;;;;;;;;;4975240;28;20319;-86
2022/09/18 03:36:32;;;;;;;2.90;1.20;;;;;;;;;;4975179;28;20578;-84
2022/09/18 03:39:00;;;;;;;2.83;1.55;;;;;;;;;;4975207;28;20210;-84
2022/09/18 03:41:27;;;;;;;1.45;1.10;;;;;;;;;;4975231;28;20221;-83
2022/09/18 03:43:55;;;;;;;1.83;1.13;;;;;;;;;;4975130;28;20291;-84
2022/09/18 03:46:23;;;;;;;1.48;1.10;;;;;;;;;;4975352;28;20208;-83
2022/09/18 03:48:50;;;;;;;1.73;1.40;;;;;;;;;;4975102;28;20204;-82
2022/09/18 03:51:20;;;;;;;2.45;1.27;;;;;;;;;;4974577;28;20230;-84
2022/09/18 03:53:49;;;;;;;1.45;1.30;;;;;;;;;;4974635;28;20204;-81
2022/09/18 03:56:17;;;;;;;2.05;1.30;;;;;;;;;;4975586;28;20232;-81
2022/09/18 03:58:45;;;;;;;3.85;1.15;;;;;;;;;;4975079;28;20211;-81
2022/09/18 04:01:13;;;;;;;2.30;1.70;;;;;;;;;;4975180;28;20226;-82
2022/09/18 04:03:41;;;;;;;3.05;1.58;;;;;;;;;;4974908;28;20236;-82
2022/09/18 04:06:08;;;;;;;3.85;1.50;;;;;;;;;;4974656;28;20295;-83
2022/09/18 04:08:38;;;;;;;1.90;1.70;;;;;;;;;;4974766;28;20696;-82
2022/09/18 04:11:05;;;;;;;4.40;2.03;;;;;;;;;;4974758;28;20709;-81
2022/09/18 04:13:34;;;;;;;4.40;1.65;;;;;;;;;;4975540;28;20204;-82
2022/09/18 04:16:02;;;;;;;2.60;1.40;;;;;;;;;;4975116;28;20228;-82
2022/09/18 04:18:29;;;;;;;7.25;1.77;;;;;;;;;;4974806;28;20291;-82
2022/09/18 04:20:57;;;;;;;4.15;1.35;;;;;;;;;;4974720;28;20252;-82
2022/09/18 04:23:24;;;;;;;1.50;0.90;;;;;;;;;;4974827;28;20658;-82
2022/09/18 04:25:53;;;;;;;4.30;1.30;;;;;;;;;;4974310;28;20574;-84
2022/09/18 04:28:21;;;;;;;4.10;1.17;;;;;;;;;;4975158;28;20308;-84
2022/09/18 04:30:48;;;;;;;3.70;1.35;;;;;;;;;;4974656;28;20279;-82
2022/09/18 04:33:16;;;;;;;1.58;0.95;;;;;;;;;;4975442;28;20227;-82
2022/09/18 04:35:43;;;;;;;1.98;0.98;;;;;;;;;;4974755;28;20247;-82
2022/09/18 04:38:11;;;;;;;1.27;1.17;;;;;;;;;;4974797;28;20243;-82
2022/09/18 04:40:38;;;;;;;2.40;1.35;;;;;;;;;;4975124;28;20228;-82
2022/09/18 04:43:09;;;;;;;1.73;1.30;;;;;;;;;;4974953;28;20295;-83
2022/09/18 04:45:36;;;;;;;2.00;1.30;;;;;;;;;;4975042;28;20599;-82
2022/09/18 04:48:04;;;;;;;2.25;1.40;;;;;;;;;;4974410;28;20643;-82
2022/09/18 04:50:31;;;;;;;1.85;1.50;;;;;;;;;;4974118;28;20234;-84
2022/09/18 04:52:59;;;;;;;1.33;1.15;;;;;;;;;;4974540;28;20291;-82
2022/09/18 04:55:26;;;;;;;1.20;1.10;;;;;;;;;;4974374;28;20315;-82
2022/09/18 04:57:54;;;;;;;2.10;1.35;;;;;;;;;;4974440;28;20205;-82
2022/09/18 05:00:22;;;;;;;3.55;1.83;;;;;;;;;;4973999;28;20319;-83
2022/09/18 05:02:50;;;;;;;2.33;1.60;;;;;;;;;;4977674;28;20204;-82
2022/09/18 05:05:17;;;;;;;1.42;1.30;;;;;;;;;;4977852;28;20662;-84
2022/09/18 05:07:45;;;;;;;2.97;1.42;;;;;;;;;;4976816;28;20688;-82
2022/09/18 05:10:12;;;;;;;1.70;1.35;;;;;;;;;;4978135;28;20756;-82
2022/09/18 05:12:40;;;;;;;2.28;1.60;;;;;;;;;;4978147;28;20216;-82
2022/09/18 05:15:09;;;;;;;2.47;2.28;;;;;;;;;;4978158;28;20319;-81
2022/09/18 05:17:39;;;;;;;1.10;1.00;;;;;;;;;;4977791;28;20204;-81
2022/09/18 05:20:07;;;;;;;0.90;0.85;;;;;;;;;;4978234;28;20264;-81
2022/09/18 05:22:35;;;;;;;1.20;1.10;;;;;;;;;;4978021;28;20203;-81
2022/09/18 05:25:03;;;;;;;4.03;1.52;;;;;;;;;;4978034;28;20211;-82
2022/09/18 05:27:31;;;;;;;2.13;1.67;;;;;;;;;;4977804;28;20206;-81
2022/09/18 05:29:58;;;;;;;2.17;1.40;;;;;;;;;;4977568;28;20287;-84
2022/09/18 05:32:26;;;;;;;2.97;1.50;;;;;;;;;;4977358;28;20211;-82
2022/09/18 05:34:54;;;;;;;4.30;2.03;;;;;;;;;;4977193;28;20310;-81
2022/09/18 05:37:22;;;;;;;2.70;1.48;;;;;;;;;;4976985;28;20319;-82
2022/09/18 05:39:49;;;;;;;1.73;1.48;;;;;;;;;;4976804;28;20252;-83
2022/09/18 05:42:17;;;;;;;1.30;1.20;;;;;;;;;;4977756;28;20211;-81
2022/09/18 05:44:44;;;;;;;2.03;1.50;;;;;;;;;;4976810;28;20231;-81
2022/09/18 05:47:12;;;;;;;2.65;1.60;;;;;;;;;;4977540;28;20214;-81
2022/09/18 05:49:39;;;;;;;6.50;1.58;;;;;;;;;;4977390;28;20311;-82
2022/09/18 05:52:08;;;;;;;3.15;1.58;;;;;;;;;;4977532;28;20200;-81
2022/09/18 05:54:35;;;;;;;1.90;1.30;;;;;;;;;;4977158;28;20239;-82
2022/09/18 05:57:03;;;;;;;2.40;1.58;;;;;;;;;;4976349;28;20263;-82
2022/09/18 05:59:30;;;;;;;3.28;1.50;;;;;;;;;;4976579;28;20689;-81
2022/09/18 06:01:58;;;;;;;2.22;1.60;;;;;;;;;;4977246;28;20287;-81
2022/09/18 06:04:25;;;;;;;3.50;1.50;;;;;;;;;;4976527;28;20728;-82
2022/09/18 06:06:53;;;;;;;2.75;1.40;;;;;;;;;;4976788;28;20235;-81
2022/09/18 06:09:21;;;;;;;1.75;1.35;;;;;;;;;;4976817;28;20211;-82
2022/09/18 06:11:49;;;;;;;2.97;1.80;;;;;;;;;;4976509;28;20216;-82
2022/09/18 06:14:17;;;;;;;1.27;1.17;;;;;;;;;;4991184;28;20298;-82
2022/09/18 06:16:44;;;;;;;1.50;1.40;;;;;;;;;;4996195;28;20224;-83
2022/09/18 06:19:11;;;;;;;1.60;1.50;;;;;;;;;;4996433;28;20255;-83
2022/09/18 06:21:40;;;;;;;4.68;1.50;;;;;;;;;;4996645;28;20287;-81
2022/09/18 06:24:08;;;;;;;1.95;1.80;;;;;;;;;;4995679;28;20826;-82
2022/09/18 06:26:37;;;;;;;2.42;1.10;;;;;;;;;;4996254;28;20239;-81
2022/09/18 06:29:04;;;;;;;4.32;1.63;;;;;;;;;;4996651;28;20291;-82
2022/09/18 06:31:32;;;;;;;4.13;2.13;;;;;;;;;;4997535;28;20251;-84
2022/09/18 06:33:59;;;;;;;3.10;1.70;;;;;;;;;;4995873;28;20239;-84
2022/09/18 06:36:27;;;;;;;2.83;1.50;;;;;;;;;;4995932;28;20227;-83
2022/09/18 06:38:54;;;;;;;4.43;1.70;;;;;;;;;;4995817;28;20214;-82
2022/09/18 06:41:23;;;;;;;4.47;1.85;;;;;;;;;;4995859;28;20314;-82
2022/09/18 06:43:52;;;;;;;1.42;1.25;;;;;;;;;;4995785;28;20202;-84
2022/09/18 06:46:19;;;;;;;2.20;1.58;;;;;;;;;;4996168;28;20203;-82
2022/09/18 06:48:49;;;;;;;2.58;1.50;;;;;;;;;;4995687;28;20246;-84
2022/09/18 06:51:16;;;;;;;3.85;2.13;;;;;;;;;;4995746;28;20224;-83
2022/09/18 06:53:44;;;;;;;1.77;1.42;;;;;;;;;;4995690;28;20254;-81
2022/09/18 06:56:11;;;;;;;2.55;1.40;;;;;;;;;;4995303;28;20315;-82
2022/09/18 06:58:39;;;;;;;2.58;1.58;;;;;;;;;;4996063;28;20578;-82
2022/09/18 07:01:08;;;;;;;5.30;1.50;;;;;;;;;;4995507;28;20254;-81
2022/09/18 07:03:35;;;;;;;2.17;1.48;;;;;;;;;;4995982;28;20263;-81
2022/09/18 07:06:03;;;;;;;2.67;1.38;;;;;;;;;;4995447;28;20556;-81
2022/09/18 07:08:31;;;;;;;1.63;1.42;;;;;;;;;;4996099;28;20242;-81
2022/09/18 07:11:01;;;;;;;4.50;1.42;;;;;;;;;;4995601;28;20899;-84
2022/09/18 07:13:31;;;;;;;1.40;1.20;;;;;;;;;;4987325;28;20204;-83
2022/09/18 07:15:59;;;;;;;2.30;1.60;;;;;;;;;;4976406;28;20192;-86
2022/09/18 07:18:28;;;;;;;2.55;1.30;;;;;;;;;;4975844;28;20215;-82
2022/09/18 07:20:56;;;;;;;2.28;1.30;;;;;;;;;;4976073;28;20282;-82
2022/09/18 07:23:23;;;;;;;1.30;1.20;;;;;;;;;;4974832;28;20204;-82
2022/09/18 07:25:51;;;;;;;2.20;1.55;;;;;;;;;;4975120;28;20235;-82
2022/09/18 07:28:25;;;;;;;1.30;1.27;;;;;;;;;;4976279;28;20248;-82
2022/09/18 07:30:52;;;;;;;3.60;1.20;;;;;;;;;;4975111;28;20713;-82
2022/09/18 07:33:20;;;;;;;3.42;1.80;;;;;;;;;;4975468;28;20315;-82
2022/09/18 07:35:49;;;;;;;5.95;1.73;;;;;;;;;;4975488;28;20299;-83
2022/09/18 07:38:17;;;;;;;1.60;1.33;;;;;;;;;;4975308;28;20256;-83
2022/09/18 07:40:44;;;;;;;1.65;1.52;;;;;;;;;;4975822;28;20311;-82
2022/09/18 07:43:12;;;;;;;2.45;1.30;;;;;;;;;;4975442;28;20239;-85
2022/09/18 07:45:40;;;;;;;2.58;1.58;;;;;;;;;;4975338;28;20569;-83
2022/09/18 07:48:08;;;;;;;1.42;1.33;;;;;;;;;;4975632;28;20200;-82
2022/09/18 07:50:35;;;;;;;2.28;1.30;;;;;;;;;;4991434;23;20227;-80
2022/09/18 07:53:07;;;;;;;2.60;2.30;;;;;;;;;;5031288;28;20228;-79
2022/09/18 07:55:36;;;;;;;2.70;1.55;;;;;;;;;;5032761;28;20583;-79
2022/09/18 07:58:06;;;;;;;1.40;1.30;;;;;;;;;;5031917;28;20318;-79
2022/09/18 08:00:36;;;;;;;3.05;1.45;;;;;;;;;;5032207;28;20293;-79
2022/09/18 08:03:05;;;;;;;0.90;0.90;;;;;;;;;;5032163;28;20222;-79
2022/09/18 08:05:33;;;;;;;1.58;1.40;;;;;;;;;;5032395;28;20202;-79
2022/09/18 08:08:05;;;;;;;1.52;1.42;;;;;;;;;;5032122;28;20195;-79
2022/09/18 08:10:34;;;;;;;4.53;1.70;;;;;;;;;;5031874;28;20217;-79
2022/09/18 08:13:02;;;;;;;1.40;1.30;;;;;;;;;;5046616;23;20223;-82
2022/09/18 08:15:30;;;;;;;1.70;1.50;;;;;;;;;;5019820;28;20211;-82
2022/09/18 08:17:58;;;;;;;2.38;1.45;;;;;;;;;;5021682;28;20790;-82
2022/09/18 08:20:25;;;;;;;4.03;1.40;;;;;;;;;;5020311;28;20290;-82
2022/09/18 08:22:53;;;;;;;1.25;1.15;;;;;;;;;;5021136;28;20229;-80
2022/09/18 08:25:22;;;;;;;1.70;1.27;;;;;;;;;;5021755;28;20241;-82
2022/09/18 08:27:49;;;;;;;1.42;1.33;;;;;;;;;;5022578;28;20202;-80
2022/09/18 08:30:17;;;;;;;1.27;1.25;;;;;;;;;;5021901;28;20237;-80
2022/09/18 08:32:44;;;;;;;1.45;1.23;;;;;;;;;;5022153;28;20850;-82
2022/09/18 08:35:12;;;;;;;1.00;1.00;;;;;;;;;;5020877;28;20286;-83
2022/09/18 08:37:46;;;;;;;1.75;1.25;;;;;;;;;;5026487;28;20219;-81
2022/09/18 08:40:14;;;;;;;3.63;1.38;;;;;;;;;;5027351;28;20293;-80
2022/09/18 08:42:55;;;;;;;1.95;1.70;;;;;;;;;;5025753;28;20206;-81
2022/09/18 08:45:39;;;;;;;1.58;1.48;;;;;;;;;;5026498;28;20282;-81
2022/09/18 08:48:10;;;;;;;1.55;1.45;;;;;;;;;;5024484;28;20206;-83
2022/09/18 08:50:41;;;;;;;1.67;1.17;;;;;;;;;;5024799;28;20258;-80
2022/09/18 08:53:16;;;;;;;1.58;1.10;;;;;;;;;;5025769;28;20559;-81
2022/09/18 08:55:47;;;;;;;1.38;1.27;;;;;;;;;;5023761;28;20229;-81
2022/09/18 08:58:19;;;;;;;1.30;1.20;;;;;;;;;;5024582;28;20218;-82
2022/09/18 09:00:51;;;;;;;1.73;1.25;;;;;;;;;;5024287;28;20249;-81
2022/09/18 09:03:29;;;;;;;1.25;1.20;;;;;;;;;;5024236;28;20210;-82
2022/09/18 09:06:00;;;;;;;1.65;1.10;;;;;;;;;;5023797;28;20209;-81
2022/09/18 09:09:04;;;;;;;0.90;0.90;;;;;;;;;;5023709;28;20215;-82
2022/09/18 09:11:40;;;;;;;1.98;1.33;;;;;;;;;;5023508;28;20630;-82
2022/09/18 09:14:35;;;;;;;1.38;1.30;;;;;;;;;;5022979;28;20624;-83
2022/09/18 09:17:09;;;;;;;1.50;1.17;;;;;;;;;;5021927;28;20619;-83
2022/09/18 09:19:45;;;;;;;1.00;0.85;;;;;;;;;;5022236;28;20229;-83
2022/09/18 09:22:19;;;;;;;2.58;1.00;;;;;;;;;;5021454;28;20223;-82
2022/09/18 09:24:58;;;;;;;1.52;1.48;;;;;;;;;;5023709;28;20230;-82
2022/09/18 09:27:28;;;;;;;1.65;1.08;;;;;;;;;;5023923;28;20262;-82
2022/09/18 09:30:02;;;;;;;1.45;0.85;;;;;;;;;;5022576;28;20270;-82
2022/09/18 09:32:34;;;;;;;0.90;0.90;;;;;;;;;;5023206;28;20233;-81
2022/09/18 09:35:17;;;;;;;2.20;1.10;;;;;;;;;;5022423;28;20258;-82
2022/09/18 09:37:46;;;;;;;1.40;0.95;;;;;;;;;;5022353;28;20683;-82
2022/09/18 09:40:18;;;;;;;1.00;1.00;;;;;;;;;;5022916;28;20203;-81
2022/09/18 09:42:51;;;;;;;1.00;1.00;;;;;;;;;;5022708;28;20273;-82
2022/09/18 09:45:24;;;;;;;1.48;0.90;;;;;;;;;;5022130;28;20267;-81
2022/09/18 09:48:00;;;;;;;1.20;0.82;;;;;;;;;;5020673;28;20203;-82
2022/09/18 09:50:43;;;;;;;1.00;1.00;;;;;;;;;;5021033;28;20294;-81
2022/09/18 09:53:13;;;;;;;0.90;0.85;;;;;;;;;;5021697;28;20188;-83
2022/09/18 09:55:50;;;;;;;0.98;0.82;;;;;;;;;;5022818;28;20211;-81
2022/09/18 09:58:30;;;;;;;0.73;0.73;;;;;;;;;;5022893;28;20218;-81
2022/09/18 10:01:05;;;;;;;0.95;0.90;;;;;;;;;;5022487;28;20238;-83
2022/09/18 10:03:42;;;;;;;0.93;0.90;;;;;;;;;;5022908;28;20214;-82
2022/09/18 10:06:20;;;;;;;0.80;0.80;;;;;;;;;;5021599;28;20719;-81
2022/09/18 10:08:53;;;;;;;1.50;1.20;;;;;;;;;;5021948;28;20233;-80
2022/09/18 10:11:21;;;;;;;1.60;1.40;;;;;;;;;;5022781;28;20315;-80
2022/09/18 10:13:52;;;;;;;1.02;1.02;;;;;;;;;;5022413;28;20249;-82
2022/09/18 10:16:24;;;;;;;1.83;1.13;;;;;;;;;;5023517;28;20234;-81
2022/09/18 10:18:51;;;;;;;1.02;1.00;;;;;;;;;;5024223;28;20298;-83
2022/09/18 10:21:21;;;;;;;1.38;1.13;;;;;;;;;;5023578;28;20278;-82
2022/09/18 10:23:54;;;;;;;1.00;1.00;;;;;;;;;;5022928;28;20237;-80
2022/09/18 10:26:26;;;;;;;1.40;1.30;;;;;;;;;;5021558;28;20187;-84
2022/09/18 10:28:53;;;;;;;1.38;1.27;;;;;;;;;;5020968;28;20207;-82
2022/09/18 10:31:22;;;;;;;0.75;0.75;;;;;;;;;;5021955;28;20223;-82
2022/09/18 10:33:52;;;;;;;1.00;1.00;;;;;;;;;;5020359;28;20266;-83
2022/09/18 10:36:35;;;;;;;1.13;1.13;;;;;;;;;;5022821;28;20605;-83
2022/09/18 10:39:18;;;;;;;1.23;1.23;;;;;;;;;;5022166;28;20741;-81
2022/09/18 10:41:45;;;;;;;0.98;0.98;;;;;;;;;;5024222;28;20227;-82
2022/09/18 10:44:26;;;;;;;0.93;0.93;;;;;;;;;;5023091;28;20230;-82
2022/09/18 10:47:05;;;;;;;1.20;1.00;;;;;;;;;;5022562;28;20638;-82
2022/09/18 10:49:39;;;;;;;0.85;0.80;;;;;;;;;;5021954;28;20199;-82
2022/09/18 10:52:31;;;;;;;2.33;1.70;;;;;;;;;;5023271;28;20218;-83
2022/09/18 10:55:14;;;;;;;1.00;1.00;;;;;;;;;;5023615;28;20195;-83
2022/09/18 10:57:43;;;;;;;1.00;0.90;;;;;;;;;;5022717;28;20670;-82
2022/09/18 11:00:47;;;;;;;0.82;0.82;;;;;;;;;;5021843;28;20219;-81
2022/09/18 11:03:35;;;;;;;0.90;0.90;;;;;;;;;;5024097;28;20179;-81
2022/09/18 11:06:05;;;;;;;0.98;0.98;;;;;;;;;;5022882;28;20203;-82
2022/09/18 11:08:36;;;;;;;3.53;1.48;;;;;;;;;;5023162;28;20226;-81
2022/09/18 11:11:06;;;;;;;1.48;1.38;;;;;;;;;;5023039;28;20227;-80
2022/09/18 11:13:33;;;;;;;1.30;1.20;;;;;;;;;;5031720;28;20292;-81
2022/09/18 11:16:04;;;;;;;0.93;0.90;;;;;;;;;;5042560;28;20297;-82
2022/09/18 11:18:33;;;;;;;1.08;1.08;;;;;;;;;;5043409;28;20209;-83
2022/09/18 11:21:05;;;;;;;1.38;1.20;;;;;;;;;;5043086;28;20249;-81
2022/09/18 11:23:34;;;;;;;1.42;1.33;;;;;;;;;;5042451;28;20639;-81
2022/09/18 11:26:18;;;;;;;0.88;0.88;;;;;;;;;;5042190;28;20293;-82
2022/09/18 11:29:01;;;;;;;3.75;3.45;;;;;;;;;;5041090;28;20190;-81
2022/09/18 11:31:40;;;;;;;1.98;1.77;;;;;;;;;;5041312;28;20265;-82
2022/09/18 11:34:23;;;;;;;1.95;1.80;;;;;;;;;;5041604;28;20192;-82
2022/09/18 11:36:55;;;;;;;2.40;2.20;;;;;;;;;;5040917;28;20632;-82
2022/09/18 11:39:27;;;;;;;1.58;1.48;;;;;;;;;;5041357;28;20218;-82
2022/09/18 11:41:55;;;;;;;1.27;1.25;;;;;;;;;;5040303;28;20293;-80
2022/09/18 11:44:26;;;;;;;2.67;2.47;;;;;;;;;;5025467;28;20217;-81
2022/09/18 11:47:28;;;;;;;1.80;1.70;;;;;;;;;;5021738;28;20293;-81
2022/09/18 11:50:13;;;;;;;3.03;1.67;;;;;;;;;;4998186;28;20675;-81
2022/09/18 11:52:44;;;;;;;1.13;1.13;;;;;;;;;;5020784;28;20195;-83
2022/09/18 11:55:28;;;;;;;0.60;0.60;;;;;;;;;;5021277;28;20643;-81
2022/09/18 11:57:59;;;;;;;1.00;0.95;;;;;;;;;;5021956;28;20206;-81
2022/09/18 12:00:30;;;;;;;1.45;1.35;;;;;;;;;;5020755;28;20202;-81
2022/09/18 12:03:12;;;;;;;0.90;0.90;;;;;;;;;;5021206;28;20187;-81
2022/09/18 12:05:51;;;;;;;0.50;0.50;;;;;;;;;;5022248;28;20290;-81
2022/09/18 12:08:34;;;;;;;0.73;0.73;;;;;;;;;;5020845;28;20195;-82
2022/09/18 12:11:14;;;;;;;0.82;0.82;;;;;;;;;;5020247;28;20253;-82
2022/09/18 12:13:53;;;;;;;1.38;0.77;;;;;;;;;;5021702;28;20298;-80
2022/09/18 12:16:26;;;;;;;1.83;1.40;;;;;;;;;;5021969;28;20273;-81
2022/09/18 12:19:01;;;;;;;2.80;2.20;;;;;;;;;;5019309;28;20210;-82
2022/09/18 12:21:41;;;;;;;1.77;1.63;;;;;;;;;;5021550;28;20218;-82
2022/09/18 12:24:15;;;;;;;1.48;1.38;;;;;;;;;;5020751;28;20278;-81
2022/09/18 12:26:52;;;;;;;2.72;2.50;;;;;;;;;;5019554;28;20632;-82
2022/09/18 12:29:34;;;;;;;1.85;1.75;;;;;;;;;;5019137;28;20222;-81
2022/09/18 12:32:14;;;;;;;1.20;1.20;;;;;;;;;;5019918;28;20246;-81
2022/09/18 12:34:47;;;;;;;1.00;1.00;;;;;;;;;;5019926;28;20279;-81
2022/09/18 12:37:33;;;;;;;1.50;1.40;;;;;;;;;;5020168;28;20197;-82
2022/09/18 12:40:19;;;;;;;0.90;0.90;;;;;;;;;;5017715;28;20207;-82
2022/09/18 12:42:58;;;;;;;1.00;0.82;;;;;;;;;;5018077;28;20242;-82
2022/09/18 12:46:13;;;;;;;0.73;0.73;;;;;;;;;;5017948;28;20198;-81
2022/09/18 12:48:57;;;;;;;0.77;0.77;;;;;;;;;;4997516;28;20298;-81
2022/09/18 12:51:39;;;;;;;0.95;0.95;;;;;;;;;;5019756;28;20215;-82
2022/09/18 12:54:36;;;;;;;0.88;0.88;;;;;;;;;;5018873;28;20198;-82
2022/09/18 12:57:30;;;;;;;1.33;1.23;;;;;;;;;;5018480;28;20198;-81
2022/09/18 13:00:01;;;;;;;0.88;0.88;;;;;;;;;;5020131;28;20207;-82
2022/09/18 13:02:40;;;;;;;0.73;0.73;;;;;;;;;;5019862;28;20226;-81
2022/09/18 13:05:15;;;;;;;0.55;0.55;;;;;;;;;;5020254;28;20270;-81
2022/09/18 13:07:47;;;;;;;0.60;0.60;;;;;;;;;;5017655;28;20179;-81
2022/09/18 13:10:21;;;;;;;0.80;0.80;;;;;;;;;;5016340;28;20199;-81
2022/09/18 13:12:55;;;;;;;1.52;0.73;;;;;;;;;;5016793;28;20211;-80
2022/09/18 13:15:27;;;;;;;0.90;0.90;;;;;;;;;;5017119;28;20193;-81
2022/09/18 13:18:10;;;;;;;1.00;1.00;;;;;;;;;;5016308;28;20259;-81
2022/09/18 13:20:42;;;;;;;1.05;1.05;;;;;;;;;;5016720;28;20229;-81
2022/09/18 13:23:17;;;;;;;1.05;1.05;;;;;;;;;;5018924;28;20183;-81
2022/09/18 13:25:48;;;;;;;1.58;1.48;;;;;;;;;;5019786;28;20179;-80
2022/09/18 13:28:18;;;;;;;2.85;2.45;;;;;;;;;;5019117;28;20565;-81
2022/09/18 13:30:47;;;;;;;2.40;1.02;;;;;;;;;;5017487;28;20282;-82
2022/09/18 13:33:24;;;;;;;0.90;0.90;;;;;;;;;;5008230;28;20210;-82
2022/09/18 13:35:56;;;;;;;2.10;1.00;;;;;;;;;;5019826;28;20201;-82
2022/09/18 13:38:26;;;;;;;0.80;0.80;;;;;;;;;;5012617;28;20205;-81
2022/09/18 13:41:01;;;;;;;1.48;0.77;;;;;;;;;;5019753;28;20227;-82
2022/09/18 13:43:43;;;;;;;0.98;0.98;;;;;;;;;;5008144;28;20306;-81
2022/09/18 13:46:35;;;;;;;1.08;0.98;;;;;;;;;;4999174;28;20192;-81
2022/09/18 13:49:19;;;;;;;1.10;1.00;;;;;;;;;;5000578;28;20266;-81
2022/09/18 13:51:47;;;;;;;0.57;0.50;;;;;;;;;;5021103;23;20244;-80
2022/09/18 13:54:27;;;;;;;0.73;0.73;;;;;;;;;;5014482;28;20209;-77
2022/09/18 13:57:33;;;;;;;0.52;0.52;;;;;;;;;;5015138;28;20717;-78
2022/09/18 14:00:05;;;;;;;0.55;0.55;;;;;;;;;;4953722;28;20588;-77
2022/09/18 14:02:35;;;;;;;0.73;0.73;;;;;;;;;;5004835;28;20293;-77
2022/09/18 14:05:32;;;;;;;2.30;0.80;;;;;;;;;;5014339;28;20598;-76
2022/09/18 14:08:15;;;;;;;0.63;0.60;;;;;;;;;;5007509;28;20225;-77
2022/09/18 14:11:04;;;;;;;0.50;0.50;;;;;;;;;;5014443;28;20230;-76
2022/09/18 14:13:37;;;;;;;0.40;0.40;;;;;;;;;;5023804;28;20222;-77
2022/09/18 14:16:13;;;;;;;0.57;0.57;;;;;;;;;;5034375;28;20198;-77
2022/09/18 14:18:56;;;;;;;1.23;1.00;;;;;;;;;;5034110;28;20674;-77
2022/09/18 14:21:30;;;;;;;0.70;0.70;;;;;;;;;;5033995;28;20798;-77
2022/09/18 14:24:24;;;;;;;1.02;1.02;;;;;;;;;;5034152;28;20296;-77
2022/09/18 14:27:02;;;;;;;2.08;1.58;;;;;;;;;;5029833;28;20285;-80
2022/09/18 14:29:33;;;;;;;4.47;2.25;;;;;;;;;;5025062;28;20196;-77
2022/09/18 14:32:02;;;;;;;1.25;1.15;;;;;;;;;;5032297;28;20226;-77
2022/09/18 14:34:37;;;;;;;1.13;1.02;;;;;;;;;;5032745;28;20206;-77
2022/09/18 14:37:23;;;;;;;0.77;0.77;;;;;;;;;;5033795;28;20209;-77
2022/09/18 14:39:52;;;;;;;0.85;0.85;;;;;;;;;;5033428;28;20670;-77
2022/09/18 14:42:28;;;;;;;1.65;1.40;;;;;;;;;;5033408;28;20238;-77
2022/09/18 14:45:08;;;;;;;2.17;2.00;;;;;;;;;;5014027;28;20249;-75
2022/09/18 14:47:36;;;;;;;2.10;1.90;;;;;;;;;;5013699;28;20213;-77
2022/09/18 14:50:20;;;;;;;1.98;1.40;;;;;;;;;;5014355;28;20207;-77
2022/09/18 14:52:47;;;;;;;1.08;1.08;;;;;;;;;;5013635;28;20233;-77
2022/09/18 14:55:21;;;;;;;2.00;1.88;;;;;;;;;;5026319;28;20198;-77
2022/09/18 14:57:52;;;;;;;1.77;1.67;;;;;;;;;;5033000;28;20206;-79
2022/09/18 15:00:24;;;;;;;0.98;0.98;;;;;;;;;;5032502;28;20202;-77
2022/09/18 15:02:54;;;;;;;1.15;1.15;;;;;;;;;;5032646;28;20225;-77
2022/09/18 15:05:23;;;;;;;0.95;0.95;;;;;;;;;;5033056;28;20230;-76
2022/09/18 15:07:55;;;;;;;0.80;0.80;;;;;;;;;;5032859;28;20202;-77
2022/09/18 15:10:23;;;;;;;0.60;0.60;;;;;;;;;;5033088;28;20210;-78
2022/09/18 15:12:51;;;;;;;0.68;0.68;;;;;;;;;;5032712;28;20226;-77
2022/09/18 15:15:31;;;;;;;0.60;0.60;;;;;;;;;;5032850;28;20256;-76